Ana Sayfa
METAR-TAF:

METAR-TAF

Havaalanları :

Point Lay, Alaska, Amerika Birleşik Devletleri

Enlem: 69-43N, Boylam: 163-00W, yükseklik: 8 m

Güncel hava durumu gözlemi

Rapor saat 09:56 UTC de 1 saat ve 3 dakika önce yapıldı.
Rüzgar batı/kuzeybatıdan 11 kt
Sıcaklık -14°C
Nem 85%
Basınç 989 hPa
Görüş mesafesi: 14.5 km
1300 ft yükseklikte parçalı çok bulutlu
2200 ft yükseklikte parçalı çok bulutlu
5000 ft yükseklikte çok bulutlu
hafif kar

METAR: PPIZ 120956Z AUTO 30011KT 9SM -SN BKN013 BKN022 OVC050 M14/M16 A2921 RMK AO2 SLP895 P0000 T11391156 FZRANO

Saat: 02:59 (10:59 UTC)


TAF: eksik

4.000'den fazla havaalanı için hava durumu gözlemleri ve tahminleri (METAR ve TAF raporları).

Kullanılabilir istasyonlar harita üzerinde sarı ve kırmızı noktalarla gösterilir.

İstasyonun adını görmek için fareyi noktanın üzerinde gezdirin.

Sonrasında hava gözlem ve tahminlerini görmek için tıklayın.

Haritayı değiştirmek için: yaklaştırmak için siyah artı işaretli yeşil düğmeye ve uzaklaştırmak için de eksi işaretli düğmeye hızla tıklayın; bitişik haritalar için yeşil okları kullanın.


METAR-TAF: